createdAt,value
2023-09-24T00:01:17.169Z,0.70
2023-09-24T00:04:05.427Z,1.00
2023-09-24T00:06:53.372Z,1.15
2023-09-24T00:09:41.646Z,1.13
2023-09-24T00:12:29.617Z,0.90
2023-09-24T00:15:19.317Z,1.10
2023-09-24T00:18:07.505Z,1.25
2023-09-24T00:20:56.306Z,1.30
2023-09-24T00:23:45.019Z,1.08
2023-09-24T00:26:33.053Z,1.50
2023-09-24T00:29:21.143Z,1.30
2023-09-24T00:32:11.168Z,1.25
2023-09-24T00:34:59.514Z,1.00
2023-09-24T00:37:47.511Z,1.20
2023-09-24T00:40:35.550Z,1.38
2023-09-24T00:43:27.194Z,1.50
2023-09-24T00:46:15.345Z,1.33
2023-09-24T00:49:04.828Z,1.30
2023-09-24T00:51:55.921Z,1.20
2023-09-24T00:54:44.885Z,1.35
2023-09-24T00:57:35.750Z,1.13
2023-09-24T01:00:26.300Z,1.00
2023-09-24T01:03:15.437Z,1.50
2023-09-24T01:06:07.862Z,1.30
2023-09-24T01:08:56.156Z,1.50
2023-09-24T01:11:46.744Z,1.20
2023-09-24T01:14:35.628Z,1.35
2023-09-24T01:17:24.824Z,1.15
2023-09-24T01:20:14.374Z,1.15
2023-09-24T01:23:05.370Z,1.50
2023-09-24T01:25:53.810Z,1.40
2023-09-24T01:28:41.991Z,1.40
2023-09-24T01:31:32.071Z,1.23
2023-09-24T01:34:20.810Z,1.60
2023-09-24T01:37:10.330Z,1.38
2023-09-24T01:40:00.329Z,1.33
2023-09-24T01:42:48.492Z,1.52
2023-09-24T01:45:41.412Z,1.10
2023-09-24T01:48:29.839Z,1.20
2023-09-24T01:51:18.498Z,1.20
2023-09-24T01:54:08.236Z,1.20
2023-09-24T01:56:59.294Z,1.50
2023-09-24T01:59:47.499Z,1.25
2023-09-24T02:02:35.918Z,1.20
2023-09-24T02:05:24.969Z,1.50
2023-09-24T02:08:13.306Z,1.23
2023-09-24T02:11:01.242Z,1.67
2023-09-24T02:13:50.761Z,1.58
2023-09-24T02:16:39.406Z,1.42
2023-09-24T02:19:27.847Z,1.48
2023-09-24T02:22:21.262Z,1.60
2023-09-24T02:25:11.454Z,1.80
2023-09-24T02:27:59.618Z,1.38
2023-09-24T02:30:49.448Z,1.70
2023-09-24T02:33:38.392Z,1.92
2023-09-24T02:36:26.687Z,1.57
2023-09-24T02:39:14.793Z,1.75
2023-09-24T02:42:02.910Z,1.58
2023-09-24T02:44:51.330Z,1.55
2023-09-24T02:47:40.837Z,1.70
2023-09-24T02:50:30.553Z,1.13
2023-09-24T02:53:19.246Z,1.52
2023-09-24T02:56:07.177Z,1.88
2023-09-24T02:58:55.039Z,1.80
2023-09-24T03:01:48.068Z,1.60
2023-09-24T03:04:37.435Z,1.50
2023-09-24T03:07:25.672Z,1.52
2023-09-24T03:10:14.774Z,1.77
2023-09-24T03:13:03.612Z,1.63
2023-09-24T03:15:52.875Z,1.80
2023-09-24T03:18:40.993Z,1.63
2023-09-24T03:21:30.638Z,1.63
2023-09-24T03:24:18.887Z,1.50
2023-09-24T03:27:07.053Z,1.55
2023-09-24T03:29:55.053Z,1.35
2023-09-24T03:32:43.245Z,1.50
2023-09-24T03:35:31.398Z,1.80
2023-09-24T03:38:21.151Z,1.63
2023-09-24T03:41:09.845Z,1.30
2023-09-24T03:43:58.072Z,1.80
2023-09-24T03:46:49.096Z,1.40
2023-09-24T03:49:37.196Z,1.60
2023-09-24T03:52:25.106Z,1.63
2023-09-24T03:55:17.503Z,1.70
2023-09-24T03:58:07.187Z,1.75
2023-09-24T04:00:55.120Z,1.70
2023-09-24T04:03:43.302Z,2.30
2023-09-24T04:06:31.376Z,2.20
2023-09-24T04:09:19.434Z,2.03
2023-09-24T04:12:09.902Z,2.20
2023-09-24T04:14:58.383Z,2.10
2023-09-24T04:17:47.360Z,1.80
2023-09-24T04:20:35.893Z,2.20
2023-09-24T04:23:24.134Z,2.22
2023-09-24T04:26:19.720Z,2.22
2023-09-24T04:29:09.893Z,2.40
2023-09-24T04:31:59.711Z,2.00
2023-09-24T04:34:47.989Z,2.30
2023-09-24T04:37:40.104Z,2.53
2023-09-24T04:40:28.270Z,2.45
2023-09-24T04:43:17.892Z,2.20
2023-09-24T04:46:07.184Z,2.17
2023-09-24T04:48:55.234Z,2.50
2023-09-24T04:51:43.293Z,2.45
2023-09-24T04:54:31.164Z,2.13
2023-09-24T04:57:19.530Z,1.90
2023-09-24T05:00:07.989Z,1.90
2023-09-24T05:02:57.496Z,1.98
2023-09-24T05:05:45.680Z,1.98
2023-09-24T05:08:33.773Z,1.85
2023-09-24T05:11:21.699Z,1.97
2023-09-24T05:14:09.633Z,2.05
2023-09-24T05:16:57.515Z,1.90
2023-09-24T05:19:46.784Z,1.90
2023-09-24T05:22:34.626Z,2.13
2023-09-24T05:25:22.419Z,2.30
2023-09-24T05:28:10.370Z,1.95
2023-09-24T05:30:58.764Z,1.95
2023-09-24T05:33:48.535Z,1.83
2023-09-24T05:36:38.039Z,1.90
2023-09-24T05:39:25.876Z,2.03
2023-09-24T05:42:13.789Z,2.28
2023-09-24T05:45:01.707Z,2.15
2023-09-24T05:47:49.798Z,2.05
2023-09-24T05:50:37.774Z,2.15
2023-09-24T05:53:27.022Z,2.10
2023-09-24T05:56:14.886Z,2.08
2023-09-24T05:59:02.811Z,2.67
2023-09-24T06:01:51.065Z,2.22
2023-09-24T06:04:39.185Z,2.35
2023-09-24T06:07:29.406Z,2.53
2023-09-24T06:10:19.848Z,2.25
2023-09-24T06:13:07.975Z,2.08
2023-09-24T06:16:00.414Z,2.45
2023-09-24T06:18:48.605Z,2.47
2023-09-24T06:21:36.647Z,2.97
2023-09-24T06:24:26.619Z,3.30
2023-09-24T06:27:17.994Z,3.17
2023-09-24T06:30:06.454Z,3.25
2023-09-24T06:32:54.406Z,2.90
2023-09-24T06:35:43.098Z,2.70
2023-09-24T06:38:31.306Z,2.92
2023-09-24T06:41:19.214Z,3.10
2023-09-24T06:44:10.388Z,3.10
2023-09-24T06:46:58.202Z,3.28
2023-09-24T06:49:49.183Z,3.60
2023-09-24T06:52:37.940Z,3.40
2023-09-24T06:55:26.205Z,3.67
2023-09-24T06:58:14.326Z,3.22
2023-09-24T07:01:04.645Z,2.75
2023-09-24T07:03:52.988Z,2.80
2023-09-24T07:06:42.181Z,2.85
2023-09-24T07:09:30.457Z,2.63
2023-09-24T07:12:18.445Z,2.75
2023-09-24T07:15:07.002Z,2.55
2023-09-24T07:17:56.640Z,2.40
2023-09-24T07:20:49.091Z,2.28
2023-09-24T07:23:38.550Z,2.15
2023-09-24T07:26:27.201Z,2.15
2023-09-24T07:29:15.722Z,2.47
2023-09-24T07:32:03.757Z,2.30
2023-09-24T07:34:53.536Z,2.20
2023-09-24T07:37:41.449Z,2.20
2023-09-24T07:40:29.599Z,1.95
2023-09-24T07:43:17.550Z,2.30
2023-09-24T07:46:05.509Z,1.93
2023-09-24T07:48:53.529Z,1.60
2023-09-24T07:51:43.426Z,1.92
2023-09-24T07:54:31.237Z,1.45
2023-09-24T07:57:19.437Z,1.55
2023-09-24T08:00:08.502Z,1.63
2023-09-24T08:02:56.457Z,1.60
2023-09-24T08:05:44.702Z,1.58
2023-09-24T08:08:50.022Z,1.50
2023-09-24T08:11:41.444Z,1.52
2023-09-24T08:14:29.384Z,1.70
2023-09-24T08:17:17.229Z,1.40
2023-09-24T08:20:05.329Z,1.80
2023-09-24T08:22:53.455Z,1.30
2023-09-24T08:25:42.750Z,1.40
2023-09-24T08:28:30.706Z,1.60
2023-09-24T08:31:18.827Z,1.65
2023-09-24T08:34:06.712Z,1.40
2023-09-24T08:36:54.748Z,1.10
2023-09-24T08:39:42.698Z,1.40
2023-09-24T08:42:33.599Z,1.40
2023-09-24T08:45:21.566Z,1.40
2023-09-24T08:48:10.557Z,1.30
2023-09-24T08:50:58.985Z,1.40
2023-09-24T08:53:46.918Z,1.20
2023-09-24T08:56:34.834Z,1.23
2023-09-24T08:59:24.078Z,1.23
2023-09-24T09:02:12.023Z,1.20
2023-09-24T09:05:00.045Z,1.05
2023-09-24T09:07:55.216Z,1.30
2023-09-24T09:10:43.465Z,1.13
2023-09-24T09:13:31.325Z,1.07
2023-09-24T09:16:21.858Z,1.17
2023-09-24T09:19:11.486Z,0.98
2023-09-24T09:22:17.246Z,1.08
2023-09-24T09:25:06.133Z,0.80
2023-09-24T09:27:54.080Z,1.00
2023-09-24T09:30:41.933Z,1.10
2023-09-24T09:33:32.505Z,1.00
2023-09-24T09:36:24.074Z,0.63
2023-09-24T09:39:11.951Z,0.73
2023-09-24T09:42:00.244Z,0.60
2023-09-24T09:44:50.366Z,0.70
2023-09-24T09:47:49.976Z,0.70
2023-09-24T09:50:44.947Z,1.13
2023-09-24T09:53:35.165Z,0.75
2023-09-24T09:56:24.265Z,1.00
2023-09-24T09:59:12.299Z,1.00
2023-09-24T10:02:01.314Z,1.00
2023-09-24T10:04:49.650Z,0.75
2023-09-24T10:07:39.583Z,0.85
2023-09-24T10:10:44.080Z,0.80
2023-09-24T10:13:43.622Z,0.77
2023-09-24T10:16:32.436Z,0.90
2023-09-24T10:19:20.408Z,0.82
2023-09-24T10:22:23.109Z,0.65
2023-09-24T10:25:29.656Z,0.80
2023-09-24T10:28:18.918Z,0.98
2023-09-24T10:31:07.840Z,0.90
2023-09-24T10:33:56.523Z,1.00
2023-09-24T10:36:44.732Z,0.80
2023-09-24T10:39:32.659Z,0.87
2023-09-24T10:42:20.648Z,0.90
2023-09-24T10:45:28.664Z,1.00
2023-09-24T10:48:17.641Z,0.90
2023-09-24T10:51:05.585Z,0.90
2023-09-24T10:53:53.562Z,1.00
2023-09-24T10:56:41.672Z,0.90
2023-09-24T10:59:36.409Z,1.00
2023-09-24T11:02:27.370Z,0.90
2023-09-24T11:05:15.632Z,0.90
2023-09-24T11:08:03.509Z,0.93
2023-09-24T11:10:51.688Z,0.80
2023-09-24T11:13:40.573Z,0.90
2023-09-24T11:16:28.562Z,0.80
2023-09-24T11:19:38.919Z,0.70
2023-09-24T11:22:27.866Z,1.07
2023-09-24T11:25:17.561Z,0.80
2023-09-24T11:28:06.353Z,0.90
2023-09-24T11:30:54.759Z,0.80
2023-09-24T11:33:42.725Z,0.93
2023-09-24T11:36:32.086Z,0.87
2023-09-24T11:39:20.168Z,0.95
2023-09-24T11:42:08.194Z,1.00
2023-09-24T11:44:57.418Z,1.10
2023-09-24T11:47:45.295Z,0.95
2023-09-24T11:50:33.513Z,0.80
2023-09-24T11:53:24.720Z,1.20
2023-09-24T11:56:12.949Z,1.00
2023-09-24T11:59:01.043Z,0.80
2023-09-24T12:01:48.933Z,1.05
2023-09-24T12:04:36.806Z,1.00
2023-09-24T12:07:25.451Z,1.05
2023-09-24T12:10:14.704Z,1.00
2023-09-24T12:13:05.342Z,0.90
2023-09-24T12:15:53.460Z,0.93
2023-09-24T12:18:42.692Z,0.93
2023-09-24T12:21:32.901Z,0.95
2023-09-24T12:24:20.745Z,1.02
2023-09-24T12:27:10.064Z,1.02
2023-09-24T12:29:58.006Z,0.98
2023-09-24T12:32:45.904Z,1.10
2023-09-24T12:35:34.155Z,0.95
2023-09-24T12:38:21.981Z,1.10
2023-09-24T12:41:11.732Z,0.73
2023-09-24T12:44:00.998Z,0.90
2023-09-24T12:46:48.858Z,0.90
2023-09-24T12:49:36.762Z,0.90
2023-09-24T12:52:25.412Z,1.10
2023-09-24T12:55:14.203Z,0.90
2023-09-24T12:58:02.017Z,0.70
2023-09-24T13:00:51.183Z,1.20
2023-09-24T13:03:39.274Z,1.00
2023-09-24T13:06:27.680Z,1.20
2023-09-24T13:09:18.011Z,1.10
2023-09-24T13:12:06.162Z,1.05
2023-09-24T13:14:54.088Z,0.77
2023-09-24T13:17:43.584Z,1.00
2023-09-24T13:20:31.549Z,1.08
2023-09-24T13:23:19.350Z,1.10
2023-09-24T13:26:07.140Z,1.02
2023-09-24T13:28:54.978Z,1.00
2023-09-24T13:31:43.789Z,1.50
2023-09-24T13:34:33.268Z,0.93
2023-09-24T13:37:21.133Z,1.20
2023-09-24T13:40:23.044Z,1.00
2023-09-24T13:43:20.276Z,1.20
2023-09-24T13:46:08.243Z,1.00
2023-09-24T13:48:56.313Z,1.00
2023-09-24T13:51:45.524Z,0.88
2023-09-24T13:54:34.054Z,0.90
2023-09-24T13:57:21.970Z,0.80
2023-09-24T14:00:10.397Z,0.80
2023-09-24T14:02:58.435Z,0.98
2023-09-24T14:05:46.573Z,1.00
2023-09-24T14:08:53.920Z,0.90
2023-09-24T14:11:59.368Z,0.90
2023-09-24T14:14:47.444Z,1.02
2023-09-24T14:17:35.401Z,0.95
2023-09-24T14:20:23.296Z,0.90
2023-09-24T14:23:11.190Z,0.88
2023-09-24T14:26:00.424Z,0.70
2023-09-24T14:28:48.572Z,0.77
2023-09-24T14:31:36.827Z,0.80
2023-09-24T14:34:24.929Z,1.20
2023-09-24T14:37:12.756Z,1.00
2023-09-24T14:40:00.665Z,1.00
2023-09-24T14:42:49.955Z,0.90
2023-09-24T14:45:38.830Z,0.93
2023-09-24T14:48:26.875Z,1.00
2023-09-24T14:51:18.689Z,0.90
2023-09-24T14:54:06.843Z,1.00
2023-09-24T14:56:57.548Z,1.10
2023-09-24T14:59:47.543Z,0.85
2023-09-24T15:02:35.882Z,0.90
2023-09-24T15:05:24.844Z,0.88
2023-09-24T15:08:12.859Z,0.90
2023-09-24T15:11:02.943Z,0.80
2023-09-24T15:13:50.898Z,1.00
2023-09-24T15:16:40.225Z,0.95
2023-09-24T15:19:28.103Z,1.00
2023-09-24T15:22:15.888Z,1.00
2023-09-24T15:25:04.059Z,0.82
2023-09-24T15:27:51.902Z,1.00
2023-09-24T15:30:41.248Z,0.70
2023-09-24T15:33:30.781Z,1.17
2023-09-24T15:36:19.113Z,0.90
2023-09-24T15:39:07.965Z,0.60
2023-09-24T15:41:55.849Z,0.90
2023-09-24T15:44:43.718Z,0.95
2023-09-24T15:47:31.589Z,0.90
2023-09-24T15:50:20.804Z,1.00
2023-09-24T15:53:08.795Z,0.90
2023-09-24T15:55:56.655Z,0.90
2023-09-24T15:58:44.801Z,1.00
2023-09-24T16:01:32.764Z,1.70
2023-09-24T16:04:20.597Z,1.35
2023-09-24T16:07:09.897Z,1.20
2023-09-24T16:09:58.138Z,1.40
2023-09-24T16:12:45.945Z,1.05
2023-09-24T16:15:35.373Z,1.20
2023-09-24T16:18:23.416Z,1.00
2023-09-24T16:21:11.525Z,1.30
2023-09-24T16:24:00.786Z,1.10
2023-09-24T16:26:48.804Z,0.82
2023-09-24T16:29:36.674Z,0.90
2023-09-24T16:32:24.555Z,0.80
2023-09-24T16:35:12.511Z,1.00
2023-09-24T16:38:00.325Z,0.70
2023-09-24T16:40:56.970Z,0.90
2023-09-24T16:43:45.974Z,1.10
2023-09-24T16:46:33.972Z,1.10
2023-09-24T16:49:21.845Z,1.10
2023-09-24T16:52:09.841Z,1.10
2023-09-24T16:54:58.556Z,0.70
2023-09-24T16:57:48.151Z,0.90
2023-09-24T17:00:36.398Z,1.27
2023-09-24T17:03:24.401Z,0.80
2023-09-24T17:06:12.615Z,0.90
2023-09-24T17:09:00.542Z,0.90
2023-09-24T17:11:48.485Z,0.80
2023-09-24T17:14:37.738Z,0.80
2023-09-24T17:17:25.621Z,0.97
2023-09-24T17:20:14.064Z,0.80
2023-09-24T17:23:02.609Z,1.23
2023-09-24T17:25:50.432Z,1.10
2023-09-24T17:28:38.359Z,0.90
2023-09-24T17:31:29.776Z,1.13
2023-09-24T17:34:18.670Z,1.10
2023-09-24T17:37:06.889Z,0.93
2023-09-24T17:39:54.796Z,0.98
2023-09-24T17:42:43.885Z,1.02
2023-09-24T17:45:31.853Z,1.10
2023-09-24T17:48:21.202Z,1.00
2023-09-24T17:51:10.759Z,1.10
2023-09-24T17:53:58.790Z,1.00
2023-09-24T17:56:47.821Z,0.95
2023-09-24T17:59:35.629Z,1.10
2023-09-24T18:02:23.640Z,1.13
2023-09-24T18:05:12.946Z,1.20
2023-09-24T18:08:00.824Z,1.23
2023-09-24T18:10:48.705Z,1.10
2023-09-24T18:13:36.815Z,1.03
2023-09-24T18:16:25.101Z,1.20
2023-09-24T18:19:13.040Z,0.95
2023-09-24T18:22:02.231Z,0.93
2023-09-24T18:24:52.011Z,0.93
2023-09-24T18:27:39.940Z,1.20
2023-09-24T18:30:28.134Z,1.23
2023-09-24T18:33:16.221Z,1.25
2023-09-24T18:36:05.063Z,1.40
2023-09-24T18:38:54.457Z,1.10
2023-09-24T18:41:42.393Z,1.20
2023-09-24T18:44:31.837Z,1.15
2023-09-24T18:47:19.654Z,1.13
2023-09-24T18:50:07.857Z,1.40
2023-09-24T18:52:55.800Z,1.15
2023-09-24T18:55:45.639Z,1.27
2023-09-24T18:58:34.115Z,1.40
2023-09-24T19:01:22.032Z,1.45
2023-09-24T19:04:10.142Z,1.20
2023-09-24T19:06:58.511Z,1.30
2023-09-24T19:09:47.218Z,1.10
2023-09-24T19:12:36.972Z,1.40
2023-09-24T19:15:24.886Z,1.30
2023-09-24T19:18:12.887Z,1.40
2023-09-24T19:21:00.964Z,1.60
2023-09-24T19:23:49.017Z,1.30
2023-09-24T19:26:37.068Z,1.20
2023-09-24T19:29:26.259Z,1.20
2023-09-24T19:32:14.045Z,1.40
2023-09-24T19:35:02.017Z,1.45
2023-09-24T19:37:49.914Z,1.40
2023-09-24T19:40:38.301Z,1.30
2023-09-24T19:43:26.157Z,1.38
2023-09-24T19:46:17.203Z,1.40
2023-09-24T19:49:06.126Z,1.40
2023-09-24T19:51:54.054Z,1.50
2023-09-24T19:54:42.801Z,1.50
2023-09-24T19:57:30.796Z,1.40
2023-09-24T20:00:19.572Z,1.35
2023-09-24T20:03:09.022Z,1.38
2023-09-24T20:05:57.313Z,1.37
2023-09-24T20:08:47.074Z,1.33
2023-09-24T20:11:35.699Z,1.23
2023-09-24T20:14:23.632Z,1.40
2023-09-24T20:17:11.502Z,1.40
2023-09-24T20:20:00.747Z,1.57
2023-09-24T20:22:48.582Z,1.30
2023-09-24T20:25:38.425Z,1.50
2023-09-24T20:28:41.233Z,2.35
2023-09-24T20:31:34.225Z,1.92
2023-09-24T20:34:22.229Z,1.53
2023-09-24T20:37:11.484Z,1.52
2023-09-24T20:39:59.651Z,1.25
2023-09-24T20:42:47.460Z,1.30
2023-09-24T20:45:35.301Z,1.15
2023-09-24T20:48:23.338Z,1.60
2023-09-24T20:51:11.390Z,1.40
2023-09-24T20:54:00.636Z,1.40
2023-09-24T20:56:48.501Z,1.50
2023-09-24T20:59:37.393Z,1.50
2023-09-24T21:02:25.270Z,1.47
2023-09-24T21:05:13.219Z,1.23
2023-09-24T21:08:01.109Z,1.50
2023-09-24T21:10:50.362Z,1.42
2023-09-24T21:13:39.116Z,1.67
2023-09-24T21:16:26.950Z,1.30
2023-09-24T21:19:14.777Z,1.40
2023-09-24T21:22:02.597Z,1.40
2023-09-24T21:24:52.603Z,1.23
2023-09-24T21:27:42.483Z,1.45
2023-09-24T21:30:30.433Z,1.37
2023-09-24T21:33:18.400Z,1.40
2023-09-24T21:36:07.002Z,1.48
2023-09-24T21:38:55.442Z,1.60
2023-09-24T21:41:43.306Z,1.40
2023-09-24T21:44:32.601Z,1.30
2023-09-24T21:47:20.696Z,1.58
2023-09-24T21:50:09.279Z,1.50
2023-09-24T21:52:57.126Z,1.60
2023-09-24T21:55:44.977Z,1.58
2023-09-24T21:58:32.825Z,1.50
2023-09-24T22:01:22.128Z,1.48
2023-09-24T22:04:10.434Z,1.50
2023-09-24T22:06:58.502Z,1.30
2023-09-24T22:09:46.406Z,1.40
2023-09-24T22:12:34.756Z,1.33
2023-09-24T22:15:22.834Z,1.25
2023-09-24T22:18:12.764Z,1.30
2023-09-24T22:21:02.571Z,1.30
2023-09-24T22:23:50.568Z,1.40
2023-09-24T22:26:39.203Z,1.20
2023-09-24T22:29:27.096Z,1.55
2023-09-24T22:32:14.923Z,1.10
2023-09-24T22:35:04.160Z,1.50
2023-09-24T22:37:52.023Z,1.50
2023-09-24T22:40:39.936Z,1.40
2023-09-24T22:43:27.850Z,1.70
2023-09-24T22:46:18.498Z,1.50
2023-09-24T22:49:06.473Z,1.35
2023-09-24T22:51:55.701Z,1.23
2023-09-24T22:54:44.402Z,1.40
2023-09-24T22:57:32.399Z,1.30
2023-09-24T23:00:20.354Z,1.60
2023-09-24T23:03:08.424Z,1.42
2023-09-24T23:05:56.395Z,1.38
2023-09-24T23:08:45.575Z,1.40
2023-09-24T23:11:35.959Z,1.55
2023-09-24T23:14:24.996Z,1.40
2023-09-24T23:17:13.888Z,1.50
2023-09-24T23:20:03.376Z,1.40
2023-09-24T23:22:52.346Z,1.63
2023-09-24T23:25:44.648Z,1.52
2023-09-24T23:28:33.017Z,1.40
2023-09-24T23:31:21.020Z,1.35
2023-09-24T23:34:11.510Z,1.65
2023-09-24T23:37:00.837Z,1.57
2023-09-24T23:39:48.859Z,1.50
2023-09-24T23:42:38.112Z,1.40
2023-09-24T23:45:26.094Z,1.60
2023-09-24T23:48:14.292Z,1.60
2023-09-24T23:51:02.443Z,1.40
2023-09-24T23:53:50.360Z,1.50
2023-09-24T23:56:38.244Z,1.75
2023-09-24T23:59:27.436Z,1.52
